Terminal Aerodrome Forecast
Issued by NWS Boise, ID

Home | Current Version | Previous Version | Text Only | Print | Product List | Glossary On
Versions: 1 2 3 4 5 6 7 8 9 10 11 12 13 14 15
000
FTUS45 KBOI 302121 AAA
TAFBOI
TAF AMD
KBOI 302121Z 3021/3118 31008G18KT P6SM SCT200
     FM310300 VRB05KT P6SM SKC
      TEMPO 3113/3117 4SM FU=

USA.gov is the U.S. government's official web portal to all federal, state and local government web resources and services.